sensor_id;sensor_type;location;lat;lon;timestamp;P1;durP1;ratioP1;P2;durP2;ratioP2
68214;SDS011;55036;52.138;5.236;2023-09-18T00:00:33;28.77;;;23.52;;
68214;SDS011;55036;52.138;5.236;2023-09-18T00:03:01;28.85;;;22.70;;
68214;SDS011;55036;52.138;5.236;2023-09-18T00:05:29;28.10;;;21.52;;
68214;SDS011;55036;52.138;5.236;2023-09-18T00:07:57;26.40;;;22.77;;
68214;SDS011;55036;52.138;5.236;2023-09-18T00:10:25;27.00;;;23.50;;
68214;SDS011;55036;52.138;5.236;2023-09-18T00:12:52;29.00;;;22.27;;
68214;SDS011;55036;52.138;5.236;2023-09-18T00:15:19;28.25;;;22.65;;
68214;SDS011;55036;52.138;5.236;2023-09-18T00:17:46;30.23;;;22.83;;
68214;SDS011;55036;52.138;5.236;2023-09-18T00:20:13;28.92;;;22.58;;
68214;SDS011;55036;52.138;5.236;2023-09-18T00:22:40;30.10;;;20.70;;
68214;SDS011;55036;52.138;5.236;2023-09-18T00:25:07;27.90;;;22.73;;
68214;SDS011;55036;52.138;5.236;2023-09-18T00:27:33;32.95;;;23.73;;
68214;SDS011;55036;52.138;5.236;2023-09-18T00:30:05;30.92;;;22.08;;
68214;SDS011;55036;52.138;5.236;2023-09-18T00:32:32;27.40;;;23.80;;
68214;SDS011;55036;52.138;5.236;2023-09-18T00:34:59;29.92;;;23.42;;
68214;SDS011;55036;52.138;5.236;2023-09-18T00:37:26;26.58;;;22.67;;
68214;SDS011;55036;52.138;5.236;2023-09-18T00:39:54;30.38;;;23.75;;
68214;SDS011;55036;52.138;5.236;2023-09-18T01:21:15;27.55;;;22.58;;
68214;SDS011;55036;52.138;5.236;2023-09-18T01:23:41;25.48;;;21.20;;
68214;SDS011;55036;52.138;5.236;2023-09-18T01:26:08;26.83;;;21.50;;
68214;SDS011;55036;52.138;5.236;2023-09-18T01:28:35;28.85;;;22.10;;
68214;SDS011;55036;52.138;5.236;2023-09-18T01:31:01;28.75;;;21.40;;
68214;SDS011;55036;52.138;5.236;2023-09-18T01:33:29;25.25;;;21.75;;
68214;SDS011;55036;52.138;5.236;2023-09-18T01:35:57;28.42;;;20.80;;
68214;SDS011;55036;52.138;5.236;2023-09-18T01:38:26;27.15;;;22.25;;
68214;SDS011;55036;52.138;5.236;2023-09-18T01:40:54;25.05;;;20.50;;
68214;SDS011;55036;52.138;5.236;2023-09-18T01:43:21;24.15;;;20.08;;
68214;SDS011;55036;52.138;5.236;2023-09-18T01:45:48;23.27;;;19.52;;
68214;SDS011;55036;52.138;5.236;2023-09-18T01:48:16;25.25;;;20.88;;
68214;SDS011;55036;52.138;5.236;2023-09-18T01:50:43;25.30;;;20.85;;
68214;SDS011;55036;52.138;5.236;2023-09-18T01:53:09;27.58;;;21.65;;
68214;SDS011;55036;52.138;5.236;2023-09-18T01:55:36;25.38;;;20.95;;
68214;SDS011;55036;52.138;5.236;2023-09-18T01:58:03;25.70;;;20.75;;
68214;SDS011;55036;52.138;5.236;2023-09-18T02:00:30;27.67;;;21.17;;
68214;SDS011;55036;52.138;5.236;2023-09-18T02:02:57;26.40;;;21.45;;
68214;SDS011;55036;52.138;5.236;2023-09-18T02:05:41;26.05;;;21.27;;
68214;SDS011;55036;52.138;5.236;2023-09-18T02:08:08;27.17;;;21.05;;
68214;SDS011;55036;52.138;5.236;2023-09-18T02:10:35;25.02;;;19.75;;
68214;SDS011;55036;52.138;5.236;2023-09-18T02:13:02;30.77;;;22.20;;
68214;SDS011;55036;52.138;5.236;2023-09-18T02:15:30;26.58;;;21.52;;
68214;SDS011;55036;52.138;5.236;2023-09-18T02:17:58;25.08;;;19.88;;
68214;SDS011;55036;52.138;5.236;2023-09-18T02:20:25;25.88;;;20.02;;
68214;SDS011;55036;52.138;5.236;2023-09-18T02:22:52;25.05;;;19.35;;
68214;SDS011;55036;52.138;5.236;2023-09-18T02:25:19;21.98;;;19.35;;
68214;SDS011;55036;52.138;5.236;2023-09-18T02:27:45;24.67;;;18.02;;
68214;SDS011;55036;52.138;5.236;2023-09-18T02:30:12;23.77;;;19.00;;
68214;SDS011;55036;52.138;5.236;2023-09-18T02:32:39;20.52;;;17.92;;
68214;SDS011;55036;52.138;5.236;2023-09-18T02:35:06;23.02;;;17.75;;
68214;SDS011;55036;52.138;5.236;2023-09-18T02:37:33;27.15;;;18.63;;
68214;SDS011;55036;52.138;5.236;2023-09-18T02:40:00;22.95;;;16.70;;
68214;SDS011;55036;52.138;5.236;2023-09-18T02:42:27;21.75;;;17.02;;
68214;SDS011;55036;52.138;5.236;2023-09-18T02:44:54;26.95;;;16.55;;
68214;SDS011;55036;52.138;5.236;2023-09-18T02:47:20;22.23;;;16.35;;
68214;SDS011;55036;52.138;5.236;2023-09-18T02:49:47;20.75;;;16.50;;
68214;SDS011;55036;52.138;5.236;2023-09-18T02:52:14;21.15;;;16.45;;
68214;SDS011;55036;52.138;5.236;2023-09-18T02:54:41;22.45;;;16.30;;
68214;SDS011;55036;52.138;5.236;2023-09-18T02:57:08;19.90;;;16.35;;
68214;SDS011;55036;52.138;5.236;2023-09-18T02:59:35;22.75;;;16.80;;
68214;SDS011;55036;52.138;5.236;2023-09-18T03:02:02;21.77;;;17.15;;
68214;SDS011;55036;52.138;5.236;2023-09-18T03:04:29;25.65;;;16.75;;
68214;SDS011;55036;52.138;5.236;2023-09-18T03:06:57;23.08;;;16.67;;
68214;SDS011;55036;52.138;5.236;2023-09-18T03:09:24;21.73;;;17.58;;
68214;SDS011;55036;52.138;5.236;2023-09-18T03:11:51;21.77;;;16.27;;
68214;SDS011;55036;52.138;5.236;2023-09-18T03:14:18;19.25;;;15.65;;
68214;SDS011;55036;52.138;5.236;2023-09-18T03:16:44;20.33;;;16.50;;
68214;SDS011;55036;52.138;5.236;2023-09-18T03:19:11;19.55;;;13.85;;
68214;SDS011;55036;52.138;5.236;2023-09-18T03:21:38;20.85;;;16.77;;
68214;SDS011;55036;52.138;5.236;2023-09-18T03:24:06;22.10;;;17.23;;
68214;SDS011;55036;52.138;5.236;2023-09-18T03:26:33;22.80;;;14.25;;
68214;SDS011;55036;52.138;5.236;2023-09-18T03:29:00;18.55;;;15.35;;
68214;SDS011;55036;52.138;5.236;2023-09-18T03:31:27;26.45;;;17.33;;
68214;SDS011;55036;52.138;5.236;2023-09-18T03:33:55;24.10;;;16.75;;
68214;SDS011;55036;52.138;5.236;2023-09-18T03:36:22;20.38;;;17.60;;
68214;SDS011;55036;52.138;5.236;2023-09-18T03:38:51;24.52;;;17.13;;
68214;SDS011;55036;52.138;5.236;2023-09-18T03:41:19;26.50;;;17.40;;
68214;SDS011;55036;52.138;5.236;2023-09-18T03:43:45;26.67;;;18.13;;
68214;SDS011;55036;52.138;5.236;2023-09-18T03:46:12;24.70;;;17.25;;
68214;SDS011;55036;52.138;5.236;2023-09-18T03:48:39;26.35;;;19.48;;
68214;SDS011;55036;52.138;5.236;2023-09-18T03:51:06;23.42;;;17.95;;
68214;SDS011;55036;52.138;5.236;2023-09-18T03:53:34;28.80;;;18.90;;
68214;SDS011;55036;52.138;5.236;2023-09-18T03:56:01;23.45;;;17.05;;
68214;SDS011;55036;52.138;5.236;2023-09-18T03:58:28;25.02;;;19.15;;
68214;SDS011;55036;52.138;5.236;2023-09-18T04:00:55;24.30;;;19.20;;
68214;SDS011;55036;52.138;5.236;2023-09-18T04:03:22;25.83;;;19.10;;
68214;SDS011;55036;52.138;5.236;2023-09-18T04:05:49;26.30;;;18.60;;
68214;SDS011;55036;52.138;5.236;2023-09-18T04:08:16;25.70;;;20.15;;
68214;SDS011;55036;52.138;5.236;2023-09-18T04:10:42;24.67;;;19.65;;
68214;SDS011;55036;52.138;5.236;2023-09-18T04:13:11;25.25;;;18.73;;
68214;SDS011;55036;52.138;5.236;2023-09-18T04:15:38;24.90;;;19.23;;
68214;SDS011;55036;52.138;5.236;2023-09-18T04:18:05;27.20;;;18.92;;
68214;SDS011;55036;52.138;5.236;2023-09-18T04:20:32;23.95;;;18.48;;
68214;SDS011;55036;52.138;5.236;2023-09-18T04:23:18;25.20;;;18.30;;
68214;SDS011;55036;52.138;5.236;2023-09-18T04:25:53;21.73;;;16.50;;
68214;SDS011;55036;52.138;5.236;2023-09-18T04:28:21;22.75;;;16.27;;
68214;SDS011;55036;52.138;5.236;2023-09-18T04:30:48;20.73;;;16.70;;
68214;SDS011;55036;52.138;5.236;2023-09-18T04:33:16;24.45;;;15.90;;
68214;SDS011;55036;52.138;5.236;2023-09-18T04:35:43;22.00;;;14.95;;
68214;SDS011;55036;52.138;5.236;2023-09-18T04:38:11;21.27;;;14.63;;
68214;SDS011;55036;52.138;5.236;2023-09-18T04:40:38;16.73;;;10.88;;
68214;SDS011;55036;52.138;5.236;2023-09-18T04:43:07;11.57;;;8.48;;
68214;SDS011;55036;52.138;5.236;2023-09-18T04:45:34;9.82;;;6.95;;
68214;SDS011;55036;52.138;5.236;2023-09-18T04:48:01;19.95;;;7.15;;
68214;SDS011;55036;52.138;5.236;2023-09-18T04:50:29;7.93;;;5.82;;
68214;SDS011;55036;52.138;5.236;2023-09-18T04:52:56;12.32;;;6.07;;
68214;SDS011;55036;52.138;5.236;2023-09-18T04:55:24;8.30;;;5.65;;
68214;SDS011;55036;52.138;5.236;2023-09-18T04:57:50;9.50;;;5.80;;
68214;SDS011;55036;52.138;5.236;2023-09-18T05:00:17;10.95;;;5.57;;
68214;SDS011;55036;52.138;5.236;2023-09-18T05:02:49;9.20;;;5.40;;
68214;SDS011;55036;52.138;5.236;2023-09-18T05:05:16;8.50;;;5.80;;
68214;SDS011;55036;52.138;5.236;2023-09-18T05:07:44;8.20;;;5.45;;
68214;SDS011;55036;52.138;5.236;2023-09-18T05:10:11;8.75;;;6.00;;
68214;SDS011;55036;52.138;5.236;2023-09-18T05:12:38;10.35;;;5.68;;
68214;SDS011;55036;52.138;5.236;2023-09-18T05:15:07;9.68;;;5.75;;
68214;SDS011;55036;52.138;5.236;2023-09-18T05:17:40;8.80;;;6.38;;
68214;SDS011;55036;52.138;5.236;2023-09-18T05:20:12;8.57;;;6.50;;
68214;SDS011;55036;52.138;5.236;2023-09-18T05:22:40;10.65;;;7.15;;
68214;SDS011;55036;52.138;5.236;2023-09-18T05:25:08;10.27;;;6.88;;
68214;SDS011;55036;52.138;5.236;2023-09-18T05:27:36;10.10;;;7.03;;
68214;SDS011;55036;52.138;5.236;2023-09-18T05:30:19;11.45;;;6.43;;
68214;SDS011;55036;52.138;5.236;2023-09-18T05:32:48;11.93;;;7.53;;
68214;SDS011;55036;52.138;5.236;2023-09-18T05:35:15;9.77;;;7.05;;
68214;SDS011;55036;52.138;5.236;2023-09-18T05:37:43;9.70;;;7.38;;
68214;SDS011;55036;52.138;5.236;2023-09-18T05:40:11;15.60;;;8.05;;
68214;SDS011;55036;52.138;5.236;2023-09-18T05:42:39;12.88;;;7.40;;
68214;SDS011;55036;52.138;5.236;2023-09-18T05:45:12;11.25;;;7.57;;
68214;SDS011;55036;52.138;5.236;2023-09-18T05:47:39;9.73;;;7.55;;
68214;SDS011;55036;52.138;5.236;2023-09-18T05:50:07;12.57;;;8.82;;
68214;SDS011;55036;52.138;5.236;2023-09-18T05:52:35;9.68;;;8.68;;
68214;SDS011;55036;52.138;5.236;2023-09-18T05:55:02;10.60;;;8.90;;
68214;SDS011;55036;52.138;5.236;2023-09-18T05:57:31;12.15;;;9.27;;
68214;SDS011;55036;52.138;5.236;2023-09-18T05:59:58;10.88;;;8.75;;
68214;SDS011;55036;52.138;5.236;2023-09-18T06:02:25;13.35;;;9.40;;
68214;SDS011;55036;52.138;5.236;2023-09-18T06:04:58;10.45;;;7.82;;
68214;SDS011;55036;52.138;5.236;2023-09-18T06:07:26;11.13;;;8.85;;
68214;SDS011;55036;52.138;5.236;2023-09-18T06:09:53;14.65;;;9.25;;
68214;SDS011;55036;52.138;5.236;2023-09-18T06:12:20;13.57;;;9.77;;
68214;SDS011;55036;52.138;5.236;2023-09-18T06:14:47;17.55;;;10.07;;
68214;SDS011;55036;52.138;5.236;2023-09-18T06:17:15;17.33;;;9.93;;
68214;SDS011;55036;52.138;5.236;2023-09-18T06:19:44;16.65;;;11.15;;
68214;SDS011;55036;52.138;5.236;2023-09-18T06:22:12;11.02;;;8.73;;
68214;SDS011;55036;52.138;5.236;2023-09-18T06:24:39;12.45;;;8.48;;
68214;SDS011;55036;52.138;5.236;2023-09-18T06:27:06;12.05;;;7.70;;
68214;SDS011;55036;52.138;5.236;2023-09-18T06:29:33;13.00;;;8.77;;
68214;SDS011;55036;52.138;5.236;2023-09-18T06:32:01;11.43;;;8.23;;
68214;SDS011;55036;52.138;5.236;2023-09-18T06:34:27;12.57;;;7.82;;
68214;SDS011;55036;52.138;5.236;2023-09-18T06:36:54;9.20;;;7.03;;
68214;SDS011;55036;52.138;5.236;2023-09-18T06:39:21;14.27;;;7.53;;
68214;SDS011;55036;52.138;5.236;2023-09-18T06:41:50;11.57;;;8.02;;
68214;SDS011;55036;52.138;5.236;2023-09-18T06:44:16;9.43;;;6.97;;
68214;SDS011;55036;52.138;5.236;2023-09-18T06:46:43;11.55;;;7.10;;
68214;SDS011;55036;52.138;5.236;2023-09-18T06:49:10;10.70;;;6.88;;
68214;SDS011;55036;52.138;5.236;2023-09-18T06:51:37;9.23;;;6.45;;
68214;SDS011;55036;52.138;5.236;2023-09-18T06:54:09;10.27;;;6.10;;
68214;SDS011;55036;52.138;5.236;2023-09-18T06:56:36;9.70;;;5.93;;
68214;SDS011;55036;52.138;5.236;2023-09-18T06:59:03;10.93;;;6.30;;
68214;SDS011;55036;52.138;5.236;2023-09-18T07:01:30;9.45;;;5.97;;
68214;SDS011;55036;52.138;5.236;2023-09-18T07:03:58;8.48;;;5.43;;
68214;SDS011;55036;52.138;5.236;2023-09-18T07:06:26;9.60;;;6.35;;
68214;SDS011;55036;52.138;5.236;2023-09-18T07:08:53;10.75;;;6.03;;
68214;SDS011;55036;52.138;5.236;2023-09-18T07:11:21;7.85;;;5.80;;
68214;SDS011;55036;52.138;5.236;2023-09-18T07:13:51;9.13;;;5.88;;
68214;SDS011;55036;52.138;5.236;2023-09-18T07:16:18;10.98;;;5.38;;
68214;SDS011;55036;52.138;5.236;2023-09-18T07:18:45;8.48;;;6.40;;
68214;SDS011;55036;52.138;5.236;2023-09-18T07:21:12;11.02;;;6.47;;
68214;SDS011;55036;52.138;5.236;2023-09-18T07:23:39;8.13;;;5.75;;
68214;SDS011;55036;52.138;5.236;2023-09-18T07:26:07;8.38;;;5.80;;
68214;SDS011;55036;52.138;5.236;2023-09-18T07:28:34;7.97;;;6.50;;
68214;SDS011;55036;52.138;5.236;2023-09-18T07:31:07;8.75;;;6.22;;
68214;SDS011;55036;52.138;5.236;2023-09-18T07:33:35;11.20;;;7.00;;
68214;SDS011;55036;52.138;5.236;2023-09-18T07:36:02;10.82;;;6.03;;
68214;SDS011;55036;52.138;5.236;2023-09-18T07:38:30;11.70;;;6.55;;
68214;SDS011;55036;52.138;5.236;2023-09-18T07:40:57;10.80;;;6.75;;
68214;SDS011;55036;52.138;5.236;2023-09-18T07:43:24;7.60;;;6.32;;
68214;SDS011;55036;52.138;5.236;2023-09-18T07:45:52;11.82;;;6.47;;
68214;SDS011;55036;52.138;5.236;2023-09-18T07:48:19;8.45;;;6.07;;
68214;SDS011;55036;52.138;5.236;2023-09-18T07:50:48;9.32;;;6.40;;
68214;SDS011;55036;52.138;5.236;2023-09-18T07:53:17;7.32;;;6.47;;
68214;SDS011;55036;52.138;5.236;2023-09-18T07:55:45;10.93;;;7.13;;
68214;SDS011;55036;52.138;5.236;2023-09-18T07:58:13;11.77;;;6.10;;
68214;SDS011;55036;52.138;5.236;2023-09-18T08:00:40;7.00;;;6.35;;
68214;SDS011;55036;52.138;5.236;2023-09-18T08:03:07;7.18;;;6.22;;
68214;SDS011;55036;52.138;5.236;2023-09-18T08:05:34;9.75;;;6.68;;
68214;SDS011;55036;52.138;5.236;2023-09-18T08:08:01;8.02;;;6.03;;
68214;SDS011;55036;52.138;5.236;2023-09-18T08:10:31;7.57;;;6.13;;
68214;SDS011;55036;52.138;5.236;2023-09-18T08:12:58;9.02;;;6.32;;
68214;SDS011;55036;52.138;5.236;2023-09-18T08:15:25;8.75;;;5.43;;
68214;SDS011;55036;52.138;5.236;2023-09-18T08:17:52;8.77;;;5.10;;
68214;SDS011;55036;52.138;5.236;2023-09-18T08:20:19;7.95;;;5.55;;
68214;SDS011;55036;52.138;5.236;2023-09-18T08:22:46;9.93;;;5.35;;
68214;SDS011;55036;52.138;5.236;2023-09-18T08:25:14;8.43;;;5.47;;
68214;SDS011;55036;52.138;5.236;2023-09-18T08:27:42;7.70;;;5.22;;
68214;SDS011;55036;52.138;5.236;2023-09-18T08:30:11;7.43;;;5.53;;
68214;SDS011;55036;52.138;5.236;2023-09-18T08:32:39;7.90;;;5.65;;
68214;SDS011;55036;52.138;5.236;2023-09-18T08:35:08;8.02;;;5.13;;
68214;SDS011;55036;52.138;5.236;2023-09-18T08:37:35;5.78;;;4.93;;
68214;SDS011;55036;52.138;5.236;2023-09-18T08:40:02;7.20;;;4.93;;
68214;SDS011;55036;52.138;5.236;2023-09-18T08:42:38;8.18;;;4.55;;
68214;SDS011;55036;52.138;5.236;2023-09-18T08:47:38;6.65;;;4.18;;
68214;SDS011;55036;52.138;5.236;2023-09-18T08:50:08;6.38;;;4.53;;
68214;SDS011;55036;52.138;5.236;2023-09-18T08:52:37;6.70;;;3.97;;
68214;SDS011;55036;52.138;5.236;2023-09-18T08:55:05;7.50;;;4.15;;
68214;SDS011;55036;52.138;5.236;2023-09-18T08:57:35;4.75;;;4.22;;
68214;SDS011;55036;52.138;5.236;2023-09-18T09:00:04;7.22;;;4.53;;
68214;SDS011;55036;52.138;5.236;2023-09-18T09:02:34;6.30;;;4.10;;
68214;SDS011;55036;52.138;5.236;2023-09-18T09:05:01;5.75;;;4.07;;
68214;SDS011;55036;52.138;5.236;2023-09-18T09:07:28;5.95;;;3.72;;
68214;SDS011;55036;52.138;5.236;2023-09-18T09:09:57;7.25;;;3.70;;
68214;SDS011;55036;52.138;5.236;2023-09-18T09:15:21;6.95;;;3.40;;
68214;SDS011;55036;52.138;5.236;2023-09-18T09:17:51;6.13;;;3.47;;
68214;SDS011;55036;52.138;5.236;2023-09-18T09:20:27;8.60;;;3.63;;
68214;SDS011;55036;52.138;5.236;2023-09-18T09:22:59;4.45;;;3.47;;
68214;SDS011;55036;52.138;5.236;2023-09-18T09:25:28;5.82;;;3.10;;
68214;SDS011;55036;52.138;5.236;2023-09-18T09:27:58;5.55;;;3.53;;
68214;SDS011;55036;52.138;5.236;2023-09-18T09:30:33;6.90;;;3.60;;
68214;SDS011;55036;52.138;5.236;2023-09-18T09:33:03;6.03;;;3.65;;
68214;SDS011;55036;52.138;5.236;2023-09-18T09:35:32;7.63;;;4.07;;
68214;SDS011;55036;52.138;5.236;2023-09-18T09:38:01;6.15;;;3.80;;
68214;SDS011;55036;52.138;5.236;2023-09-18T09:40:39;8.40;;;4.03;;
68214;SDS011;55036;52.138;5.236;2023-09-18T09:43:08;4.57;;;3.90;;
68214;SDS011;55036;52.138;5.236;2023-09-18T09:45:36;6.15;;;3.97;;
68214;SDS011;55036;52.138;5.236;2023-09-18T09:48:04;4.80;;;3.60;;
68214;SDS011;55036;52.138;5.236;2023-09-18T09:50:33;5.10;;;3.83;;
68214;SDS011;55036;52.138;5.236;2023-09-18T09:53:10;5.35;;;4.85;;
68214;SDS011;55036;52.138;5.236;2023-09-18T09:55:37;6.72;;;5.10;;
68214;SDS011;55036;52.138;5.236;2023-09-18T09:58:05;6.68;;;4.90;;
68214;SDS011;55036;52.138;5.236;2023-09-18T10:00:34;6.38;;;5.78;;
68214;SDS011;55036;52.138;5.236;2023-09-18T10:03:19;8.32;;;6.35;;
68214;SDS011;55036;52.138;5.236;2023-09-18T10:05:48;6.75;;;5.90;;
68214;SDS011;55036;52.138;5.236;2023-09-18T10:08:21;6.68;;;6.07;;
68214;SDS011;55036;52.138;5.236;2023-09-18T10:10:50;6.80;;;6.13;;
68214;SDS011;55036;52.138;5.236;2023-09-18T10:13:20;6.15;;;5.55;;
68214;SDS011;55036;52.138;5.236;2023-09-18T10:15:55;6.80;;;5.45;;
68214;SDS011;55036;52.138;5.236;2023-09-18T10:18:26;5.88;;;5.38;;
68214;SDS011;55036;52.138;5.236;2023-09-18T10:20:57;8.75;;;5.40;;
68214;SDS011;55036;52.138;5.236;2023-09-18T10:23:53;7.55;;;4.88;;
68214;SDS011;55036;52.138;5.236;2023-09-18T10:26:24;7.18;;;4.15;;
68214;SDS011;55036;52.138;5.236;2023-09-18T10:28:55;7.17;;;4.17;;
68214;SDS011;55036;52.138;5.236;2023-09-18T10:31:26;6.78;;;4.57;;
68214;SDS011;55036;52.138;5.236;2023-09-18T10:33:55;5.07;;;4.30;;
68214;SDS011;55036;52.138;5.236;2023-09-18T10:36:24;5.35;;;3.90;;
68214;SDS011;55036;52.138;5.236;2023-09-18T10:38:52;6.40;;;3.75;;
68214;SDS011;55036;52.138;5.236;2023-09-18T10:41:21;5.43;;;4.25;;
68214;SDS011;55036;52.138;5.236;2023-09-18T10:43:54;6.25;;;4.68;;
68214;SDS011;55036;52.138;5.236;2023-09-18T10:46:26;6.03;;;4.30;;
68214;SDS011;55036;52.138;5.236;2023-09-18T10:48:53;8.70;;;4.43;;
68214;SDS011;55036;52.138;5.236;2023-09-18T10:51:21;9.00;;;4.57;;
68214;SDS011;55036;52.138;5.236;2023-09-18T10:53:49;5.88;;;3.67;;
68214;SDS011;55036;52.138;5.236;2023-09-18T10:56:22;5.63;;;4.10;;
68214;SDS011;55036;52.138;5.236;2023-09-18T10:58:55;7.40;;;4.32;;
68214;SDS011;55036;52.138;5.236;2023-09-18T11:01:24;7.05;;;4.38;;
68214;SDS011;55036;52.138;5.236;2023-09-18T11:03:57;5.75;;;3.95;;
68214;SDS011;55036;52.138;5.236;2023-09-18T11:06:26;5.85;;;4.35;;
68214;SDS011;55036;52.138;5.236;2023-09-18T11:09:03;4.65;;;3.50;;
68214;SDS011;55036;52.138;5.236;2023-09-18T11:11:35;5.10;;;4.25;;
68214;SDS011;55036;52.138;5.236;2023-09-18T11:14:02;5.65;;;3.55;;
68214;SDS011;55036;52.138;5.236;2023-09-18T11:16:34;4.90;;;4.03;;
68214;SDS011;55036;52.138;5.236;2023-09-18T11:19:08;6.55;;;3.88;;
68214;SDS011;55036;52.138;5.236;2023-09-18T11:21:37;6.50;;;4.00;;
68214;SDS011;55036;52.138;5.236;2023-09-18T11:24:08;7.38;;;3.97;;
68214;SDS011;55036;52.138;5.236;2023-09-18T11:26:47;6.35;;;4.03;;
68214;SDS011;55036;52.138;5.236;2023-09-18T11:29:16;5.78;;;3.42;;
68214;SDS011;55036;52.138;5.236;2023-09-18T11:34:23;5.05;;;2.95;;
68214;SDS011;55036;52.138;5.236;2023-09-18T11:36:55;5.45;;;3.45;;
68214;SDS011;55036;52.138;5.236;2023-09-18T11:42:19;6.85;;;3.30;;
68214;SDS011;55036;52.138;5.236;2023-09-18T11:44:55;5.78;;;3.50;;
68214;SDS011;55036;52.138;5.236;2023-09-18T11:47:24;4.50;;;3.60;;
68214;SDS011;55036;52.138;5.236;2023-09-18T11:49:55;5.53;;;3.53;;
68214;SDS011;55036;52.138;5.236;2023-09-18T11:52:29;5.97;;;3.42;;
68214;SDS011;55036;52.138;5.236;2023-09-18T11:54:59;7.45;;;3.15;;
68214;SDS011;55036;52.138;5.236;2023-09-18T11:57:26;5.88;;;3.42;;
68214;SDS011;55036;52.138;5.236;2023-09-18T11:59:55;4.65;;;3.50;;
68214;SDS011;55036;52.138;5.236;2023-09-18T12:05:09;7.20;;;3.45;;
68214;SDS011;55036;52.138;5.236;2023-09-18T12:07:45;4.53;;;3.20;;
68214;SDS011;55036;52.138;5.236;2023-09-18T12:10:16;3.85;;;3.25;;
68214;SDS011;55036;52.138;5.236;2023-09-18T12:12:45;8.70;;;3.50;;
68214;SDS011;55036;52.138;5.236;2023-09-18T12:15:12;6.60;;;3.85;;
68214;SDS011;55036;52.138;5.236;2023-09-18T12:17:40;6.45;;;4.00;;
68214;SDS011;55036;52.138;5.236;2023-09-18T12:20:14;5.00;;;3.92;;
68214;SDS011;55036;52.138;5.236;2023-09-18T12:22:50;7.75;;;4.57;;
68214;SDS011;55036;52.138;5.236;2023-09-18T12:25:17;4.72;;;4.18;;
68214;SDS011;55036;52.138;5.236;2023-09-18T12:27:46;10.75;;;4.57;;
68214;SDS011;55036;52.138;5.236;2023-09-18T12:30:19;7.15;;;4.68;;
68214;SDS011;55036;52.138;5.236;2023-09-18T12:32:50;6.25;;;4.28;;
68214;SDS011;55036;52.138;5.236;2023-09-18T12:35:17;5.18;;;4.03;;
68214;SDS011;55036;52.138;5.236;2023-09-18T12:37:45;5.00;;;3.83;;
68214;SDS011;55036;52.138;5.236;2023-09-18T12:40:22;5.55;;;4.00;;
68214;SDS011;55036;52.138;5.236;2023-09-18T12:42:50;5.75;;;3.47;;
68214;SDS011;55036;52.138;5.236;2023-09-18T12:45:17;5.90;;;3.80;;
68214;SDS011;55036;52.138;5.236;2023-09-18T12:47:45;7.80;;;3.60;;
68214;SDS011;55036;52.138;5.236;2023-09-18T12:50:13;8.20;;;3.22;;
68214;SDS011;55036;52.138;5.236;2023-09-18T12:52:40;8.40;;;3.08;;
68214;SDS011;55036;52.138;5.236;2023-09-18T12:55:08;6.80;;;3.45;;
68214;SDS011;55036;52.138;5.236;2023-09-18T12:57:46;5.30;;;3.42;;
68214;SDS011;55036;52.138;5.236;2023-09-18T13:00:13;6.60;;;3.40;;
68214;SDS011;55036;52.138;5.236;2023-09-18T13:02:44;6.75;;;3.67;;
68214;SDS011;55036;52.138;5.236;2023-09-18T13:05:11;6.90;;;3.70;;
68214;SDS011;55036;52.138;5.236;2023-09-18T13:07:44;4.75;;;4.13;;
68214;SDS011;55036;52.138;5.236;2023-09-18T13:10:11;6.28;;;3.83;;
68214;SDS011;55036;52.138;5.236;2023-09-18T13:12:43;6.53;;;3.97;;
68214;SDS011;55036;52.138;5.236;2023-09-18T13:15:27;6.93;;;4.20;;
68214;SDS011;55036;52.138;5.236;2023-09-18T13:17:56;7.45;;;4.60;;
68214;SDS011;55036;52.138;5.236;2023-09-18T13:20:28;5.65;;;4.32;;
68214;SDS011;55036;52.138;5.236;2023-09-18T13:22:56;4.88;;;4.45;;
68214;SDS011;55036;52.138;5.236;2023-09-18T13:25:28;7.00;;;4.40;;
68214;SDS011;55036;52.138;5.236;2023-09-18T13:27:57;6.80;;;5.22;;
68214;SDS011;55036;52.138;5.236;2023-09-18T13:30:23;7.53;;;4.68;;
68214;SDS011;55036;52.138;5.236;2023-09-18T13:32:50;5.85;;;4.43;;
68214;SDS011;55036;52.138;5.236;2023-09-18T13:35:27;6.50;;;4.30;;
68214;SDS011;55036;52.138;5.236;2023-09-18T13:37:54;7.15;;;4.30;;
68214;SDS011;55036;52.138;5.236;2023-09-18T13:40:21;6.78;;;4.00;;
68214;SDS011;55036;52.138;5.236;2023-09-18T13:42:48;7.80;;;4.60;;
68214;SDS011;55036;52.138;5.236;2023-09-18T13:45:15;7.45;;;3.90;;
68214;SDS011;55036;52.138;5.236;2023-09-18T13:47:44;5.20;;;3.67;;
68214;SDS011;55036;52.138;5.236;2023-09-18T13:50:11;4.05;;;3.40;;
68214;SDS011;55036;52.138;5.236;2023-09-18T13:52:40;6.82;;;3.80;;
68214;SDS011;55036;52.138;5.236;2023-09-18T13:55:07;6.97;;;3.67;;
68214;SDS011;55036;52.138;5.236;2023-09-18T13:57:35;5.88;;;3.58;;
68214;SDS011;55036;52.138;5.236;2023-09-18T14:00:03;6.22;;;3.35;;
68214;SDS011;55036;52.138;5.236;2023-09-18T14:02:33;5.95;;;3.35;;
68214;SDS011;55036;52.138;5.236;2023-09-18T14:05:00;4.20;;;2.97;;
68214;SDS011;55036;52.138;5.236;2023-09-18T14:07:27;5.32;;;2.75;;
68214;SDS011;55036;52.138;5.236;2023-09-18T14:09:54;5.70;;;2.30;;
68214;SDS011;55036;52.138;5.236;2023-09-18T14:12:20;2.78;;;1.92;;
68214;SDS011;55036;52.138;5.236;2023-09-18T14:14:47;3.60;;;2.20;;
68214;SDS011;55036;52.138;5.236;2023-09-18T14:17:14;3.28;;;1.70;;
68214;SDS011;55036;52.138;5.236;2023-09-18T14:19:44;3.47;;;1.77;;
68214;SDS011;55036;52.138;5.236;2023-09-18T14:22:10;6.03;;;2.13;;
68214;SDS011;55036;52.138;5.236;2023-09-18T14:24:37;4.93;;;2.00;;
68214;SDS011;55036;52.138;5.236;2023-09-18T14:27:04;3.97;;;2.40;;
68214;SDS011;55036;52.138;5.236;2023-09-18T14:29:32;4.22;;;2.13;;
68214;SDS011;55036;52.138;5.236;2023-09-18T14:32:00;4.90;;;2.10;;
68214;SDS011;55036;52.138;5.236;2023-09-18T14:34:27;4.13;;;1.92;;
68214;SDS011;55036;52.138;5.236;2023-09-18T14:36:54;2.63;;;2.08;;
68214;SDS011;55036;52.138;5.236;2023-09-18T14:39:20;6.80;;;2.05;;
68214;SDS011;55036;52.138;5.236;2023-09-18T14:41:47;3.47;;;1.95;;
68214;SDS011;55036;52.138;5.236;2023-09-18T14:44:15;3.00;;;1.60;;
68214;SDS011;55036;52.138;5.236;2023-09-18T14:46:42;3.80;;;2.03;;
68214;SDS011;55036;52.138;5.236;2023-09-18T14:49:10;4.22;;;2.00;;
68214;SDS011;55036;52.138;5.236;2023-09-18T14:51:37;4.20;;;1.80;;
68214;SDS011;55036;52.138;5.236;2023-09-18T14:54:04;4.55;;;2.00;;
68214;SDS011;55036;52.138;5.236;2023-09-18T14:56:31;3.95;;;2.25;;
68214;SDS011;55036;52.138;5.236;2023-09-18T14:58:58;2.10;;;1.90;;
68214;SDS011;55036;52.138;5.236;2023-09-18T15:01:25;4.63;;;2.33;;
68214;SDS011;55036;52.138;5.236;2023-09-18T15:03:51;5.20;;;2.20;;
68214;SDS011;55036;52.138;5.236;2023-09-18T15:06:18;5.20;;;2.00;;
68214;SDS011;55036;52.138;5.236;2023-09-18T15:08:45;5.80;;;2.63;;
68214;SDS011;55036;52.138;5.236;2023-09-18T15:11:13;4.90;;;2.00;;
68214;SDS011;55036;52.138;5.236;2023-09-18T15:13:43;2.88;;;2.08;;
68214;SDS011;55036;52.138;5.236;2023-09-18T15:16:10;4.70;;;2.30;;
68214;SDS011;55036;52.138;5.236;2023-09-18T15:18:37;5.97;;;2.45;;
68214;SDS011;55036;52.138;5.236;2023-09-18T15:21:05;5.13;;;1.95;;
68214;SDS011;55036;52.138;5.236;2023-09-18T15:23:33;2.40;;;1.40;;
68214;SDS011;55036;52.138;5.236;2023-09-18T15:25:59;3.35;;;1.38;;
68214;SDS011;55036;52.138;5.236;2023-09-18T15:28:27;3.60;;;1.10;;
68214;SDS011;55036;52.138;5.236;2023-09-18T15:30:55;1.35;;;1.00;;
68214;SDS011;55036;52.138;5.236;2023-09-18T15:33:22;2.10;;;1.10;;
68214;SDS011;55036;52.138;5.236;2023-09-18T15:35:53;2.25;;;1.08;;
68214;SDS011;55036;52.138;5.236;2023-09-18T15:38:20;2.05;;;1.05;;